Time;durP1;ratioP1;P1;durP2;ratioP2;P2;SDS_P1;SDS_P2;PMS_P1;PMS_P2;Temp;Humidity;BMP_temperature;BMP_pressure;BME280_temperature;BME280_humidity;BME280_pressure;Samples;Min_cycle;Max_cycle;Signal;HPM_P1;HPM_P2
2022/03/18 00:00:51;;;;;;;15.13;7.88;;;4.60;99.90;;;;;;4991627;28;19917;-53
2022/03/18 00:03:16;;;;;;;24.23;8.73;;;4.60;99.90;;;;;;4989759;28;20026;-50
2022/03/18 00:05:42;;;;;;;17.55;8.20;;;4.50;99.90;;;;;;4991543;28;20026;-53
2022/03/18 00:08:09;;;;;;;;;;;4.50;99.90;;;;;;4989315;28;20502;-49
2022/03/18 00:10:35;;;;;;;16.42;9.15;;;4.50;99.90;;;;;;4989142;28;20286;-49
2022/03/18 00:13:00;;;;;;;17.13;8.32;;;4.50;99.90;;;;;;4988784;28;20048;-50
2022/03/18 00:15:27;;;;;;;14.50;8.40;;;4.50;99.90;;;;;;4989609;28;20125;-50
2022/03/18 00:17:53;;;;;;;14.15;8.75;;;4.50;99.90;;;;;;4992999;28;20042;-50
2022/03/18 00:20:20;;;;;;;12.73;8.40;;;4.40;99.90;;;;;;4990624;28;20026;-51
2022/03/18 00:22:46;;;;;;;16.15;9.20;;;4.40;99.90;;;;;;4992546;28;20034;-49
2022/03/18 00:25:13;;;;;;;13.50;8.48;;;4.40;99.90;;;;;;4989505;28;20023;-51
2022/03/18 00:27:42;;;;;;;16.30;8.45;;;4.40;99.90;;;;;;4988762;28;20218;-50
2022/03/18 00:30:09;;;;;;;20.10;9.13;;;4.30;99.90;;;;;;4992938;28;20081;-50
2022/03/18 00:32:37;;;;;;;18.63;8.93;;;4.30;99.90;;;;;;4988834;28;20116;-48
2022/03/18 00:35:03;;;;;;;13.85;7.88;;;4.30;99.90;;;;;;4991776;28;20065;-51
2022/03/18 00:37:29;;;;;;;15.10;7.82;;;4.30;99.90;;;;;;4988234;28;20179;-51
2022/03/18 00:39:54;;;;;;;15.90;8.82;;;4.20;99.90;;;;;;4992332;28;20035;-51
2022/03/18 00:42:21;;;;;;;19.85;8.82;;;4.20;99.90;;;;;;4988594;28;20145;-49
2022/03/18 00:44:46;;;;;;;14.05;7.65;;;4.20;99.90;;;;;;4989382;28;20395;-51
2022/03/18 00:52:40;;;;;;;21.08;8.38;;;4.10;99.90;;;;;;4993356;28;20108;-50
2022/03/18 00:55:07;;;;;;;13.75;8.15;;;4.10;99.90;;;;;;4990683;28;20038;-50
2022/03/18 00:57:32;;;;;;;14.77;8.07;;;4.10;99.90;;;;;;4991034;28;20065;-50
2022/03/18 00:59:58;;;;;;;17.38;9.27;;;4.10;99.90;;;;;;4993506;28;20061;-47
2022/03/18 01:02:23;;;;;;;17.48;7.78;;;4.10;99.90;;;;;;4992003;28;20124;-47
2022/03/18 01:04:50;;;;;;;24.88;8.95;;;4.00;99.90;;;;;;4995391;28;20113;-49
2022/03/18 01:07:18;;;;;;;20.95;8.57;;;4.00;99.90;;;;;;4995634;28;20526;-49
2022/03/18 01:09:44;;;;;;;20.00;7.20;;;4.00;99.90;;;;;;4996627;28;20487;-52
2022/03/18 01:12:10;;;;;;;13.77;6.85;;;4.00;99.90;;;;;;4996389;28;20030;-47
2022/03/18 01:14:35;;;;;;;13.48;6.50;;;4.00;99.90;;;;;;4995257;28;20033;-50
2022/03/18 01:17:01;;;;;;;21.15;8.73;;;3.90;99.90;;;;;;4989177;28;20461;-50
2022/03/18 01:19:27;;;;;;;19.92;7.68;;;3.90;99.90;;;;;;4997986;28;20699;-51
2022/03/18 01:21:52;;;;;;;14.82;8.00;;;3.90;99.90;;;;;;4989598;28;20026;-49
2022/03/18 01:24:18;;;;;;;20.90;8.00;;;3.90;99.90;;;;;;4988282;28;20534;-50
2022/03/18 01:26:43;;;;;;;;;;;3.90;99.90;;;;;;4989617;28;20038;-49
2022/03/18 01:29:09;;;;;;;12.90;6.78;;;3.90;99.90;;;;;;4989587;28;19917;-49
2022/03/18 01:31:35;;;;;;;17.48;8.52;;;3.80;99.90;;;;;;4987339;28;20032;-48
2022/03/18 01:34:01;;;;;;;19.50;10.00;;;3.80;99.90;;;;;;4988397;28;20044;-51
2022/03/18 01:36:26;;;;;;;13.88;9.68;;;3.80;99.90;;;;;;4987476;28;20065;-50
2022/03/18 01:38:53;;;;;;;17.00;9.77;;;3.70;99.90;;;;;;4995622;28;20057;-50
2022/03/18 01:41:18;;;;;;;15.93;7.75;;;3.70;99.90;;;;;;4987475;28;20487;-50
2022/03/18 01:43:46;;;;;;;17.33;8.70;;;3.70;99.90;;;;;;4987943;28;20034;-50
2022/03/18 01:46:13;;;;;;;17.02;8.85;;;3.70;99.90;;;;;;4989464;28;20034;-53
2022/03/18 01:48:39;;;;;;;18.75;7.78;;;3.70;99.90;;;;;;4994105;28;20042;-50
2022/03/18 01:51:05;;;;;;;11.95;6.03;;;3.70;99.90;;;;;;4987322;28;20065;-50
2022/03/18 01:53:33;;;;;;;16.90;6.63;;;3.60;99.90;;;;;;4986939;28;20061;-50
2022/03/18 01:55:59;;;;;;;15.63;6.85;;;3.60;99.90;;;;;;4997111;28;20021;-51
2022/03/18 01:58:25;;;;;;;12.63;7.32;;;3.60;99.90;;;;;;4988751;28;20029;-48
2022/03/18 02:00:50;;;;;;;13.80;6.63;;;3.60;99.90;;;;;;4988387;28;20545;-50
2022/03/18 02:03:17;;;;;;;13.32;8.35;;;3.60;99.90;;;;;;4987257;28;20078;-48
2022/03/18 02:05:43;;;;;;;11.57;6.10;;;3.60;99.90;;;;;;4992942;28;20027;-51
2022/03/18 02:08:09;;;;;;;12.20;6.90;;;3.60;99.90;;;;;;4988956;28;20411;-46
2022/03/18 02:10:36;;;;;;;17.30;8.23;;;3.60;99.90;;;;;;4992579;28;20037;-49
2022/03/18 02:13:02;;;;;;;14.60;7.78;;;3.50;99.90;;;;;;4987450;28;20190;-50
2022/03/18 02:15:27;;;;;;;17.95;7.72;;;3.50;99.90;;;;;;4986915;28;20029;-53
2022/03/18 02:17:53;;;;;;;19.90;9.05;;;3.50;99.90;;;;;;4986569;28;20217;-48
2022/03/18 02:20:18;;;;;;;21.70;8.88;;;3.50;99.90;;;;;;4993329;28;20058;-51
2022/03/18 02:22:44;;;;;;;22.67;10.38;;;3.50;99.90;;;;;;4987223;28;20036;-49
2022/03/18 02:25:12;;;;;;;;;;;3.50;99.90;;;;;;4992044;28;20026;-48
2022/03/18 02:27:38;;;;;;;22.13;11.80;;;3.40;99.90;;;;;;4993795;28;19921;-49
2022/03/18 02:30:05;;;;;;;;;;;3.20;99.90;;;;;;4990068;28;20036;-49
2022/03/18 02:32:31;;;;;;;26.88;13.70;;;3.10;99.90;;;;;;4998169;28;19925;-50
2022/03/18 02:34:57;;;;;;;22.85;14.30;;;3.00;99.90;;;;;;4997430;28;20041;-49
2022/03/18 02:37:23;;;;;;;20.58;12.98;;;3.00;99.90;;;;;;4994309;28;20048;-48
2022/03/18 02:39:48;;;;;;;27.05;14.88;;;3.00;99.90;;;;;;4993151;28;20054;-47
2022/03/18 02:42:14;;;;;;;23.52;13.73;;;3.00;99.90;;;;;;4994568;28;20052;-50
2022/03/18 02:44:40;;;;;;;23.77;13.15;;;2.90;99.90;;;;;;4988321;28;20037;-47
2022/03/18 02:47:06;;;;;;;23.05;14.00;;;3.00;99.90;;;;;;4987945;28;20038;-51
2022/03/18 02:49:31;;;;;;;29.25;12.20;;;3.00;99.90;;;;;;4989131;28;20033;-49
2022/03/18 02:51:57;;;;;;;35.45;17.10;;;3.00;99.90;;;;;;4993199;28;20118;-50
2022/03/18 02:54:22;;;;;;;24.63;14.43;;;3.00;99.90;;;;;;4990008;28;20037;-52
2022/03/18 02:56:49;;;;;;;26.40;17.15;;;2.90;99.90;;;;;;4990920;28;20591;-50
2022/03/18 02:59:15;;;;;;;25.08;12.95;;;2.80;99.90;;;;;;4987812;28;20027;-53
2022/03/18 03:01:40;;;;;;;26.23;16.08;;;2.60;99.90;;;;;;4988103;28;20029;-48
2022/03/18 03:04:06;;;;;;;21.73;12.20;;;2.60;99.90;;;;;;4989501;28;20129;-50
2022/03/18 03:09:19;;;;;;;38.40;15.68;;;2.40;99.90;;;;;;4989051;28;20072;-51
2022/03/18 03:11:45;;;;;;;22.45;12.52;;;2.40;99.90;;;;;;4993294;28;20103;-48
2022/03/18 03:14:11;;;;;;;22.10;12.45;;;2.40;99.90;;;;;;4992176;28;20492;-50
2022/03/18 03:16:37;;;;;;;17.05;11.52;;;2.30;99.90;;;;;;4995772;28;20042;-49
2022/03/18 03:19:03;;;;;;;23.25;11.38;;;2.30;99.90;;;;;;5002210;28;20034;-50
2022/03/18 03:21:29;;;;;;;;;;;2.40;99.90;;;;;;4999914;28;20065;-53
2022/03/18 03:23:55;;;;;;;20.33;10.50;;;2.40;99.90;;;;;;4991343;28;19910;-50
2022/03/18 03:26:20;;;;;;;16.25;9.93;;;2.40;99.90;;;;;;4990121;28;20026;-49
2022/03/18 03:28:46;;;;;;;17.58;10.15;;;2.40;99.90;;;;;;4990788;28;20076;-50
2022/03/18 03:31:12;;;;;;;;;;;2.40;99.90;;;;;;4999786;28;20022;-50
2022/03/18 03:33:38;;;;;;;16.77;8.15;;;2.40;99.90;;;;;;4992795;28;20020;-53
2022/03/18 03:36:04;;;;;;;15.52;8.50;;;2.40;99.90;;;;;;4994312;28;20523;-51
2022/03/18 03:38:29;;;;;;;;;;;2.40;99.90;;;;;;4993995;28;20030;-54
2022/03/18 03:40:55;;;;;;;16.75;8.60;;;2.40;99.90;;;;;;4994906;28;19952;-51
2022/03/18 03:43:21;;;;;;;16.10;8.38;;;2.40;99.90;;;;;;4996965;28;20057;-48
2022/03/18 03:45:46;;;;;;;13.18;9.13;;;2.40;99.90;;;;;;4989862;28;20101;-46
2022/03/18 03:48:12;;;;;;;17.35;10.13;;;2.30;99.90;;;;;;5002155;28;20518;-52
2022/03/18 03:50:40;;;;;;;12.90;7.82;;;2.30;99.90;;;;;;4995688;28;20046;-53
2022/03/18 03:53:07;;;;;;;13.55;9.38;;;2.30;99.90;;;;;;4991439;28;22021;-50
2022/03/18 03:55:34;;;;;;;15.70;8.98;;;2.30;99.90;;;;;;4997751;28;20033;-53
2022/03/18 03:57:59;;;;;;;18.67;8.75;;;2.20;99.90;;;;;;4993821;28;20480;-47
2022/03/18 04:00:25;;;;;;;13.27;8.45;;;2.10;99.90;;;;;;4993171;28;20030;-49
2022/03/18 04:02:51;;;;;;;18.45;8.48;;;2.10;99.90;;;;;;4989635;28;20038;-51
2022/03/18 04:05:16;;;;;;;11.98;7.80;;;2.20;99.90;;;;;;4990549;28;20026;-49
2022/03/18 04:07:44;;;;;;;13.27;8.45;;;2.20;99.90;;;;;;4989766;28;20479;-47
2022/03/18 04:10:11;;;;;;;18.63;9.90;;;2.20;99.90;;;;;;4991076;28;20035;-49
2022/03/18 04:12:37;;;;;;;12.25;8.95;;;2.20;99.90;;;;;;4990215;28;20488;-47
2022/03/18 04:15:04;;;;;;;15.10;9.38;;;2.10;99.90;;;;;;4996823;28;20034;-48
2022/03/18 04:17:45;;;;;;;20.15;8.80;;;2.20;99.90;;;;;;4993409;28;20081;-52
2022/03/18 04:20:16;;;;;;;19.08;9.73;;;2.20;99.90;;;;;;4994609;28;20504;-48
2022/03/18 04:22:42;;;;;;;15.60;9.30;;;2.30;99.90;;;;;;4988419;28;20073;-51
2022/03/18 04:25:08;;;;;;;16.08;9.57;;;2.30;99.90;;;;;;4989675;28;20093;-50
2022/03/18 04:27:34;;;;;;;15.60;9.35;;;2.30;99.90;;;;;;4994853;28;20513;-51
2022/03/18 04:30:00;;;;;;;11.57;8.05;;;2.30;99.90;;;;;;4990731;28;20027;-50
2022/03/18 04:32:26;;;;;;;14.07;9.15;;;2.30;99.90;;;;;;4993064;28;20042;-49
2022/03/18 04:34:51;;;;;;;16.80;9.35;;;2.30;99.90;;;;;;4989261;28;20027;-46
2022/03/18 04:37:17;;;;;;;18.13;9.05;;;2.20;99.90;;;;;;4994657;28;20034;-49
2022/03/18 04:39:42;;;;;;;14.73;9.85;;;2.20;99.90;;;;;;4989297;28;20540;-49
2022/03/18 04:42:09;;;;;;;16.73;10.25;;;2.20;99.90;;;;;;4988915;28;20029;-50
2022/03/18 04:44:34;;;;;;;;;;;2.20;99.90;;;;;;4989161;28;20396;-48
2022/03/18 04:47:00;;;;;;;13.98;8.35;;;2.20;99.90;;;;;;4993069;28;20367;-48
2022/03/18 04:49:25;;;;;;;16.00;8.80;;;2.20;99.90;;;;;;4988900;28;20054;-50
2022/03/18 04:51:51;;;;;;;14.52;9.32;;;2.20;99.90;;;;;;4989419;28;20030;-47
2022/03/18 04:54:16;;;;;;;14.75;8.60;;;2.10;99.90;;;;;;4989091;28;20022;-49
2022/03/18 04:59:26;;;;;;;15.88;8.85;;;2.10;99.90;;;;;;4995587;28;20084;-53
2022/03/18 05:01:52;;;;;;;13.57;8.73;;;2.00;99.90;;;;;;4998100;28;20029;-53
2022/03/18 05:04:17;;;;;;;17.13;10.10;;;2.00;99.90;;;;;;4997169;28;20069;-49
2022/03/18 05:06:43;;;;;;;14.05;8.50;;;2.00;99.90;;;;;;4997226;28;20030;-48
2022/03/18 05:09:08;;;;;;;16.10;10.13;;;2.00;99.90;;;;;;4997346;28;20491;-50
2022/03/18 05:11:34;;;;;;;14.85;7.93;;;2.00;99.90;;;;;;5026151;23;20493;-58
2022/03/18 05:14:00;;;;;;;14.73;8.90;;;2.00;99.90;;;;;;5023111;28;20022;-58
2022/03/18 05:16:25;;;;;;;12.98;7.82;;;2.00;99.90;;;;;;5024656;28;20026;-57
2022/03/18 05:18:54;;;;;;;13.30;8.55;;;1.90;99.90;;;;;;5024201;28;20029;-57
2022/03/18 05:21:19;;;;;;;11.10;8.73;;;1.70;99.90;;;;;;5024214;28;20515;-56
2022/03/18 05:23:46;;;;;;;14.43;8.88;;;1.60;99.90;;;;;;5022539;28;20025;-55
2022/03/18 05:26:12;;;;;;;12.68;9.63;;;1.60;99.90;;;;;;5022757;28;20154;-56
2022/03/18 05:28:38;;;;;;;13.73;9.63;;;1.50;99.90;;;;;;5019144;28;20045;-58
2022/03/18 05:31:03;;;;;;;20.38;11.57;;;1.40;99.90;;;;;;5020879;28;20452;-57
2022/03/18 05:33:29;;;;;;;12.73;8.60;;;1.40;99.90;;;;;;5024942;28;20044;-58
2022/03/18 05:35:54;;;;;;;10.85;7.53;;;1.40;99.90;;;;;;5023716;28;20086;-53
2022/03/18 05:38:20;;;;;;;14.68;8.25;;;1.40;99.90;;;;;;5024901;28;20084;-55
2022/03/18 05:40:45;;;;;;;11.77;7.90;;;1.40;99.90;;;;;;5024967;28;20029;-57
2022/03/18 05:43:11;;;;;;;13.07;8.27;;;1.40;99.90;;;;;;5021998;28;20117;-54
2022/03/18 05:45:37;;;;;;;12.35;7.85;;;1.50;99.90;;;;;;5025940;28;20060;-55
2022/03/18 05:48:03;;;;;;;14.63;9.88;;;1.50;99.90;;;;;;5020996;28;20030;-54
2022/03/18 05:50:29;;;;;;;16.95;9.40;;;1.50;99.90;;;;;;5020201;28;20048;-54
2022/03/18 05:52:55;;;;;;;;;;;1.50;99.90;;;;;;5022899;28;20037;-53
2022/03/18 05:55:21;;;;;;;10.93;6.68;;;1.50;99.90;;;;;;5025737;28;19995;-54
2022/03/18 05:57:46;;;;;;;17.25;8.15;;;1.50;99.90;;;;;;5025132;28;20060;-55
2022/03/18 06:00:14;;;;;;;13.57;7.13;;;1.50;99.90;;;;;;5024556;28;20394;-52
2022/03/18 06:02:40;;;;;;;17.08;9.05;;;1.60;99.90;;;;;;5024432;28;20041;-53
2022/03/18 06:05:08;;;;;;;12.43;7.88;;;1.60;99.90;;;;;;5024668;28;20422;-53
2022/03/18 06:07:34;;;;;;;15.48;7.90;;;1.50;99.90;;;;;;5024141;28;20029;-50
2022/03/18 06:12:43;;;;;;;17.95;7.55;;;1.50;99.90;;;;;;5024948;28;20100;-55
2022/03/18 06:15:09;;;;;;;13.55;7.43;;;1.50;99.90;;;;;;5024020;28;20462;-54
2022/03/18 06:17:34;;;;;;;15.13;9.98;;;1.50;99.90;;;;;;5025103;28;20132;-55
2022/03/18 06:20:00;;;;;;;15.13;8.32;;;1.50;99.90;;;;;;5024634;28;20029;-53
2022/03/18 06:22:25;;;;;;;14.77;9.35;;;1.60;99.90;;;;;;5021910;28;20029;-52
2022/03/18 06:24:51;;;;;;;10.43;7.32;;;1.60;99.90;;;;;;5023316;28;20026;-48
2022/03/18 06:27:16;;;;;;;14.57;9.27;;;1.60;99.90;;;;;;5023903;28;20501;-52
2022/03/18 06:29:43;;;;;;;11.75;8.15;;;1.50;99.90;;;;;;5022957;28;20038;-53
2022/03/18 06:32:09;;;;;;;15.90;9.38;;;1.50;99.90;;;;;;5018947;28;20037;-51
2022/03/18 06:34:35;;;;;;;21.85;9.88;;;1.60;99.90;;;;;;5018585;28;20029;-53
2022/03/18 06:37:01;;;;;;;21.20;12.02;;;1.60;99.90;;;;;;5019034;28;20233;-54
2022/03/18 06:39:26;;;;;;;19.60;11.40;;;1.60;99.90;;;;;;5023709;28;20021;-55
2022/03/18 06:41:52;;;;;;;16.60;10.30;;;1.60;99.90;;;;;;5023110;28;20021;-56
2022/03/18 06:44:19;;;;;;;18.67;9.85;;;1.60;99.90;;;;;;5024186;28;20140;-55
2022/03/18 06:46:45;;;;;;;18.67;10.70;;;1.60;99.90;;;;;;5027432;28;20034;-56
2022/03/18 06:49:11;;;;;;;16.92;11.15;;;1.60;99.90;;;;;;5028249;28;20492;-52
2022/03/18 06:51:37;;;;;;;15.30;8.73;;;1.70;99.90;;;;;;5028175;28;20495;-52
2022/03/18 06:54:03;;;;;;;16.92;10.07;;;1.70;99.90;;;;;;5028127;28;20136;-53
2022/03/18 06:56:30;;;;;;;15.90;9.55;;;1.70;99.90;;;;;;5027597;28;20022;-52
2022/03/18 06:58:56;;;;;;;15.30;9.52;;;1.70;99.90;;;;;;5028815;28;20033;-52
2022/03/18 07:01:21;;;;;;;17.58;8.75;;;1.80;99.90;;;;;;5028370;28;20022;-55
2022/03/18 07:03:48;;;;;;;15.15;9.38;;;1.80;99.90;;;;;;5029703;28;20045;-58
2022/03/18 07:06:14;;;;;;;18.15;9.85;;;1.80;99.90;;;;;;5029534;28;20021;-54
2022/03/18 07:08:39;;;;;;;22.25;9.43;;;2.00;99.90;;;;;;5029268;28;20036;-55
2022/03/18 07:11:05;;;;;;;14.65;9.07;;;2.00;99.90;;;;;;5028709;28;20111;-55
2022/03/18 07:13:31;;;;;;;16.10;8.50;;;2.10;99.90;;;;;;5028945;28;20025;-53
2022/03/18 07:17:54;;;;;;;12.32;8.95;;;2.10;99.90;;;;;;5028980;28;20070;-55
2022/03/18 07:18:42;;;;;;;16.67;9.38;;;2.20;99.90;;;;;;5027850;28;20041;-52
2022/03/18 07:21:08;;;;;;;14.88;8.90;;;2.30;99.90;;;;;;5028509;28;20600;-54
2022/03/18 07:23:33;;;;;;;17.65;9.27;;;2.40;99.90;;;;;;5029142;28;20516;-56
2022/03/18 07:25:59;;;;;;;14.25;8.43;;;2.50;99.90;;;;;;5022663;28;20028;-56
2022/03/18 07:28:24;;;;;;;17.80;9.75;;;2.60;99.90;;;;;;5023632;28;20022;-54
2022/03/18 07:30:49;;;;;;;21.15;10.88;;;2.70;99.90;;;;;;5027803;28;20458;-53
2022/03/18 07:33:15;;;;;;;16.38;11.57;;;2.70;99.90;;;;;;5028193;28;20128;-55
2022/03/18 07:35:42;;;;;;;28.48;12.68;;;2.70;99.90;;;;;;5027881;28;20493;-52
2022/03/18 07:38:09;;;;;;;19.85;12.35;;;2.80;99.90;;;;;;5027889;28;20034;-49
2022/03/18 07:40:35;;;;;;;19.60;11.63;;;2.80;99.90;;;;;;5025054;28;20028;-49
2022/03/18 07:43:01;;;;;;;23.98;11.82;;;2.90;99.90;;;;;;5010743;28;20045;-55
2022/03/18 07:45:30;;;;;;;22.17;11.23;;;3.00;99.90;;;;;;5024266;28;20021;-54
2022/03/18 07:47:58;;;;;;;18.73;10.52;;;3.10;99.90;;;;;;5026172;28;20033;-53
2022/03/18 07:50:26;;;;;;;26.05;10.38;;;3.20;99.90;;;;;;5028165;28;20132;-58
2022/03/18 07:52:54;;;;;;;16.58;12.23;;;3.30;99.90;;;;;;5025864;28;20030;-57
2022/03/18 07:55:21;;;;;;;22.05;11.43;;;3.40;99.90;;;;;;5024438;28;20367;-55
2022/03/18 07:57:48;;;;;;;24.73;11.50;;;3.50;99.90;;;;;;5023586;28;20051;-55
2022/03/18 08:00:15;;;;;;;25.45;12.32;;;3.60;99.90;;;;;;5024045;28;20485;-55
2022/03/18 08:02:42;;;;;;;28.23;12.05;;;3.70;99.90;;;;;;5024642;28;20108;-53
2022/03/18 08:05:08;;;;;;;19.58;11.43;;;3.80;99.90;;;;;;5025662;28;20029;-56
2022/03/18 08:07:34;;;;;;;28.75;14.95;;;3.90;99.90;;;;;;5025825;28;20037;-53
2022/03/18 08:10:00;;;;;;;20.00;10.48;;;4.00;99.90;;;;;;5026794;28;20033;-56
2022/03/18 08:12:30;;;;;;;22.95;14.02;;;4.10;99.90;;;;;;5026776;28;20379;-56
2022/03/18 08:14:59;;;;;;;22.25;12.80;;;4.20;99.90;;;;;;5027163;28;20033;-55
2022/03/18 08:17:26;;;;;;;21.05;10.70;;;4.30;99.90;;;;;;5026953;28;20029;-52
2022/03/18 08:19:52;;;;;;;20.92;11.52;;;4.40;99.90;;;;;;5025557;28;20402;-55
2022/03/18 08:22:20;;;;;;;;;;;4.50;99.90;;;;;;5022123;28;20045;-55
2022/03/18 08:24:45;;;;;;;34.35;18.48;;;4.60;99.90;;;;;;5026151;28;19916;-55
2022/03/18 08:27:11;;;;;;;24.55;9.02;;;4.70;99.90;;;;;;5023652;28;20037;-56
2022/03/18 08:29:38;;;;;;;24.85;10.50;;;4.80;99.90;;;;;;5025723;28;20033;-56
2022/03/18 08:32:04;;;;;;;25.50;10.18;;;4.90;99.90;;;;;;5023414;28;20041;-51
2022/03/18 08:34:30;;;;;;;21.00;9.00;;;5.00;99.90;;;;;;5026595;28;20104;-56
2022/03/18 08:36:55;;;;;;;16.85;7.47;;;5.10;99.90;;;;;;5023313;28;20120;-54
2022/03/18 08:39:21;;;;;;;19.23;7.82;;;5.20;99.90;;;;;;5026413;28;20925;-55
2022/03/18 08:41:46;;;;;;;;;;;5.30;99.90;;;;;;5022974;28;20510;-55
2022/03/18 08:44:14;;;;;;;25.55;6.35;;;5.40;99.90;;;;;;5026436;28;20042;-53
2022/03/18 08:46:39;;;;;;;19.17;9.82;;;5.40;99.90;;;;;;5023748;28;20447;-56
2022/03/18 08:49:05;;;;;;;25.23;11.02;;;5.50;99.90;;;;;;5022242;28;20124;-55
2022/03/18 08:51:30;;;;;;;19.88;6.93;;;5.60;99.90;;;;;;5023943;28;20030;-51
2022/03/18 08:53:56;;;;;;;14.95;6.15;;;5.70;99.90;;;;;;5023117;28;20078;-54
2022/03/18 08:56:21;;;;;;;19.60;6.18;;;5.80;99.90;;;;;;5022641;28;20041;-55
2022/03/18 08:58:49;;;;;;;17.08;7.10;;;5.90;99.90;;;;;;5023658;28;20060;-53
2022/03/18 09:01:14;;;;;;;27.20;8.85;;;6.00;99.90;;;;;;5023644;28;20526;-56
2022/03/18 09:03:40;;;;;;;28.77;9.05;;;6.10;99.90;;;;;;5026136;28;20124;-56
2022/03/18 09:06:07;;;;;;;17.17;7.32;;;6.20;99.90;;;;;;5023962;28;20041;-55
2022/03/18 09:08:32;;;;;;;;;;;6.30;99.90;;;;;;5025867;28;20025;-56
2022/03/18 09:10:57;;;;;;;18.70;6.88;;;6.40;99.90;;;;;;5022735;28;19920;-55
2022/03/18 09:13:23;;;;;;;18.08;5.72;;;6.60;99.90;;;;;;5024645;28;20021;-56
2022/03/18 09:15:48;;;;;;;;;;;6.70;99.90;;;;;;5024235;28;20406;-52
2022/03/18 09:18:14;;;;;;;16.92;5.55;;;6.80;99.90;;;;;;5023450;28;20380;-55
2022/03/18 09:20:40;;;;;;;18.08;5.10;;;6.80;99.90;;;;;;5023044;28;20390;-55
2022/03/18 09:23:08;;;;;;;14.43;5.57;;;6.90;99.90;;;;;;5026148;28;20087;-56
2022/03/18 09:25:34;;;;;;;11.65;4.97;;;6.90;99.90;;;;;;5022905;28;20135;-56
2022/03/18 09:28:00;;;;;;;17.48;5.28;;;7.00;99.90;;;;;;5023816;28;20124;-55
2022/03/18 09:30:25;;;;;;;;;;;7.00;99.90;;;;;;5024376;28;20099;-54
2022/03/18 09:32:51;;;;;;;16.27;5.47;;;7.00;99.90;;;;;;5024187;28;19909;-53
2022/03/18 09:35:16;;;;;;;;;;;6.90;99.90;;;;;;5025482;28;20060;-54
2022/03/18 09:37:43;;;;;;;16.92;5.88;;;6.90;99.90;;;;;;5023794;28;19917;-55
2022/03/18 09:40:11;;;;;;;17.75;7.38;;;7.00;99.90;;;;;;5023783;28;20515;-53
2022/03/18 09:42:59;;;;;;;24.23;6.47;;;7.10;99.90;;;;;;5025048;28;20026;-53
2022/03/18 09:45:26;;;;;;;17.13;5.70;;;7.10;99.90;;;;;;5023144;28;20040;-55
2022/03/18 09:47:52;;;;;;;16.65;5.10;;;7.20;99.90;;;;;;5023305;28;20037;-53
2022/03/18 09:50:19;;;;;;;20.55;4.35;;;7.30;99.90;;;;;;5025551;28;20036;-55
2022/03/18 09:52:45;;;;;;;16.20;3.97;;;7.30;99.90;;;;;;5020592;28;20033;-55
2022/03/18 09:55:10;;;;;;;16.48;4.25;;;7.30;99.90;;;;;;5025251;28;20052;-52
2022/03/18 09:57:57;;;;;;;10.50;3.58;;;7.40;99.90;;;;;;5025099;28;20497;-56
2022/03/18 10:00:22;;;;;;;15.45;4.32;;;7.40;99.90;;;;;;5021514;28;20069;-56
2022/03/18 10:03:07;;;;;;;;;;;7.40;99.90;;;;;;5024364;28;20080;-54
2022/03/18 10:05:33;;;;;;;12.73;4.90;;;7.50;99.90;;;;;;5025234;28;19971;-54
2022/03/18 10:07:59;;;;;;;18.00;5.03;;;7.70;99.90;;;;;;5020870;28;20029;-56
2022/03/18 10:10:27;;;;;;;;;;;7.90;99.90;;;;;;5023501;28;20510;-53
2022/03/18 10:12:56;;;;;;;14.38;5.95;;;8.00;99.90;;;;;;5024393;28;19912;-54
2022/03/18 10:15:24;;;;;;;15.52;5.93;;;8.10;99.90;;;;;;5021733;28;20034;-55
2022/03/18 10:17:58;;;;;;;17.17;4.25;;;8.20;99.90;;;;;;5022921;28;20026;-54
2022/03/18 10:20:29;;;;;;;11.35;4.15;;;8.30;99.90;;;;;;5024145;28;20026;-55
2022/03/18 10:22:57;;;;;;;14.52;5.53;;;8.30;99.90;;;;;;5024654;28;20447;-54
2022/03/18 10:25:51;;;;;;;16.85;4.18;;;8.40;99.90;;;;;;5029054;28;20026;-55
2022/03/18 10:28:32;;;;;;;14.40;3.72;;;8.50;99.90;;;;;;5027477;28;20028;-55
2022/03/18 10:31:08;;;;;;;11.98;3.67;;;8.50;99.90;;;;;;5025268;28;20572;-56
2022/03/18 10:37:04;;;;;;;8.07;3.20;;;8.50;99.90;;;;;;5025974;28;20038;-56
2022/03/18 10:39:25;;;;;;;7.63;3.13;;;8.50;99.90;;;;;;5023556;28;20355;-55
2022/03/18 10:41:51;;;;;;;10.07;3.30;;;8.60;99.90;;;;;;5028172;28;20487;-55
2022/03/18 10:44:17;;;;;;;;;;;8.60;99.90;;;;;;5026035;28;20467;-56
2022/03/18 10:46:43;;;;;;;17.23;4.50;;;8.80;99.90;;;;;;5026706;28;19916;-56
2022/03/18 10:49:10;;;;;;;15.63;3.58;;;8.90;99.90;;;;;;5026753;28;20029;-55
2022/03/18 10:51:37;;;;;;;16.38;3.88;;;8.90;99.90;;;;;;5027589;28;20124;-58
2022/03/18 10:54:04;;;;;;;10.20;4.28;;;9.00;99.90;;;;;;5025438;28;20107;-56
2022/03/18 10:56:52;;;;;;;8.52;2.95;;;9.10;99.90;;;;;;5022906;28;20778;-52
2022/03/18 10:59:18;;;;;;;6.45;2.50;;;9.20;99.10;;;;;;5027258;28;20528;-53
2022/03/18 11:01:46;;;;;;;;;;;9.20;99.70;;;;;;5026148;28;20026;-54
2022/03/18 11:04:15;;;;;;;8.05;2.78;;;9.30;99.60;;;;;;5026249;28;19913;-56
2022/03/18 11:06:42;;;;;;;18.75;5.22;;;9.30;98.80;;;;;;5025426;28;20412;-55
2022/03/18 11:09:11;;;;;;;41.65;19.58;;;9.40;99.00;;;;;;5026794;28;20090;-55
2022/03/18 11:11:39;;;;;;;56.53;23.35;;;9.40;99.10;;;;;;5026756;28;20033;-54
2022/03/18 11:14:09;;;;;;;23.02;11.25;;;9.50;98.80;;;;;;5026894;28;20100;-55
2022/03/18 11:16:38;;;;;;;34.53;16.80;;;9.50;98.90;;;;;;5027025;28;20124;-56
2022/03/18 11:19:08;;;;;;;11.27;5.07;;;9.50;99.00;;;;;;5027006;28;20049;-54
2022/03/18 11:21:40;;;;;;;6.45;2.75;;;9.50;99.00;;;;;;5041468;28;20029;-56
2022/03/18 11:24:14;;;;;;;14.23;6.50;;;9.60;98.70;;;;;;5027034;28;20028;-55
2022/03/18 11:26:46;;;;;;;9.40;4.22;;;9.70;99.00;;;;;;5027432;28;20042;-55
2022/03/18 11:29:14;;;;;;;13.38;5.60;;;9.80;98.80;;;;;;5026726;28;20327;-54
2022/03/18 11:31:40;;;;;;;11.93;4.25;;;9.80;98.70;;;;;;5028280;28;20060;-56
2022/03/18 11:34:14;;;;;;;14.65;4.53;;;9.90;98.80;;;;;;5027684;28;20087;-55
2022/03/18 11:37:10;;;;;;;8.82;2.03;;;9.90;99.00;;;;;;5019441;28;20136;-55
2022/03/18 11:39:35;;;;;;;7.57;2.78;;;10.00;97.90;;;;;;5024517;28;20045;-55
2022/03/18 11:42:05;;;;;;;;;;;10.00;97.30;;;;;;5027648;28;20033;-54
2022/03/18 11:44:38;;;;;;;37.70;18.63;;;10.00;97.60;;;;;;5027218;28;20319;-55
2022/03/18 11:47:20;;;;;;;11.73;4.53;;;10.20;97.40;;;;;;5026309;28;20449;-53
2022/03/18 11:49:50;;;;;;;8.35;2.00;;;10.30;97.40;;;;;;5025569;28;20512;-53
2022/03/18 11:52:16;;;;;;;8.82;2.15;;;10.30;97.30;;;;;;5026897;28;20144;-56
2022/03/18 11:54:51;;;;;;;;;;;10.30;97.30;;;;;;5026160;28;20433;-54
2022/03/18 11:57:31;;;;;;;9.75;3.22;;;10.30;97.60;;;;;;5026056;28;19923;-57
2022/03/18 12:00:00;;;;;;;12.93;3.53;;;10.30;97.40;;;;;;5025410;28;20030;-51
2022/03/18 12:02:33;;;;;;;10.90;3.28;;;10.30;97.40;;;;;;5027301;28;20029;-54
2022/03/18 12:04:59;;;;;;;10.82;4.53;;;10.30;97.40;;;;;;5027071;28;20514;-55
2022/03/18 12:07:27;;;;;;;8.77;2.67;;;10.40;97.40;;;;;;5023103;28;20500;-57
2022/03/18 12:09:55;;;;;;;13.18;4.47;;;10.50;97.30;;;;;;5023707;28;20387;-54
2022/03/18 12:12:34;;;;;;;7.10;3.38;;;10.60;96.80;;;;;;5023770;28;20549;-56
2022/03/18 12:15:09;;;;;;;22.92;8.57;;;10.70;96.50;;;;;;5025258;28;20036;-53
2022/03/18 12:17:48;;;;;;;6.47;3.30;;;10.80;96.30;;;;;;5024432;28;20032;-56
2022/03/18 12:20:19;;;;;;;8.48;1.92;;;10.80;95.10;;;;;;5026467;28;20032;-55
2022/03/18 12:22:45;;;;;;;14.55;6.25;;;10.80;94.10;;;;;;5022981;28;20029;-57
2022/03/18 12:25:11;;;;;;;5.72;2.30;;;10.80;94.80;;;;;;5025671;28;20486;-57
2022/03/18 12:27:38;;;;;;;10.63;2.40;;;10.90;94.60;;;;;;5025194;28;20042;-57
2022/03/18 12:30:05;;;;;;;14.52;4.57;;;10.90;94.90;;;;;;5023267;28;20034;-57
2022/03/18 12:32:31;;;;;;;9.32;3.13;;;10.90;95.40;;;;;;5025763;28;20105;-54
2022/03/18 12:34:57;;;;;;;;;;;11.00;93.60;;;;;;5025660;28;20029;-57
2022/03/18 12:37:31;;;;;;;6.70;1.80;;;11.00;94.30;;;;;;5024574;28;19968;-54
2022/03/18 12:40:04;;;;;;;5.60;2.13;;;11.00;93.90;;;;;;5024759;28;20048;-54
2022/03/18 12:42:29;;;;;;;6.22;2.55;;;11.00;93.50;;;;;;5025271;28;20104;-57
2022/03/18 12:45:02;;;;;;;;;;;11.00;92.80;;;;;;5024403;28;20112;-56
2022/03/18 12:47:30;;;;;;;20.25;9.77;;;11.00;93.20;;;;;;5023425;28;19909;-56
2022/03/18 12:49:56;;;;;;;9.15;4.50;;;11.10;94.20;;;;;;5025943;28;20130;-56
2022/03/18 12:52:21;;;;;;;;;;;11.20;93.10;;;;;;5022644;28;20503;-56
2022/03/18 12:55:08;;;;;;;12.82;4.63;;;11.30;93.80;;;;;;5025011;28;20366;-57
2022/03/18 12:57:39;;;;;;;7.78;2.45;;;11.30;92.40;;;;;;5023032;28;20084;-55
2022/03/18 13:00:08;;;;;;;4.80;2.10;;;11.40;92.90;;;;;;5025413;28;20068;-57
2022/03/18 13:02:34;;;;;;;37.75;21.10;;;11.40;93.20;;;;;;5023581;28;20585;-53
2022/03/18 13:05:02;;;;;;;12.18;5.93;;;11.50;91.90;;;;;;5024278;28;20352;-57
2022/03/18 13:07:28;;;;;;;14.32;3.15;;;11.50;91.70;;;;;;5024473;28;20494;-57